Time;durP1;ratioP1;P1;durP2;ratioP2;P2;SDS_P1;SDS_P2;PMS_P1;PMS_P2;Temp;Humidity;BMP_temperature;BMP_pressure;BME280_temperature;BME280_humidity;BME280_pressure;Samples;Min_cycle;Max_cycle;Signal;HPM_P1;HPM_P2
2023/05/12 00:01:51;;;;;;;11.73;5.45;;;23.10;42.10;;;;;;7608274;23;80242;-61
2023/05/12 00:04:52;;;;;;;8.80;4.95;;;23.10;42.10;;;;;;7609156;23;80408;-61
2023/05/12 00:07:53;;;;;;;11.52;4.78;;;23.10;42.10;;;;;;7608158;23;80132;-61
2023/05/12 00:10:53;;;;;;;10.70;5.20;;;23.10;42.10;;;;;;7609740;23;80511;-60
2023/05/12 00:13:54;;;;;;;8.38;4.72;;;23.10;42.10;;;;;;7605872;23;80389;-59
2023/05/12 00:16:54;;;;;;;12.38;4.85;;;23.10;42.00;;;;;;7605384;23;80484;-61
2023/05/12 00:19:55;;;;;;;9.45;5.00;;;23.20;42.00;;;;;;7605922;23;81744;-60
2023/05/12 00:22:55;;;;;;;11.50;5.05;;;23.10;42.00;;;;;;7606956;23;80538;-61
2023/05/12 00:25:56;;;;;;;10.15;5.15;;;23.20;42.70;;;;;;7605745;23;80327;-61
2023/05/12 00:28:56;;;;;;;11.68;4.68;;;23.10;42.00;;;;;;7606623;23;80217;-61
2023/05/12 00:31:57;;;;;;;8.93;4.80;;;23.10;42.10;;;;;;7579311;23;83206;-62
2023/05/12 00:34:58;;;;;;;8.13;4.32;;;23.20;42.10;;;;;;7579567;23;82071;-62
2023/05/12 00:37:58;;;;;;;13.10;5.50;;;23.10;42.00;;;;;;7606062;23;80069;-62
2023/05/12 00:40:59;;;;;;;10.13;4.40;;;23.10;42.00;;;;;;7605830;23;80698;-65
2023/05/12 00:44:00;;;;;;;10.65;5.07;;;23.10;42.00;;;;;;7605601;23;80478;-67
2023/05/12 00:47:00;;;;;;;8.85;4.82;;;23.10;42.00;;;;;;7579228;23;82908;-66
2023/05/12 00:50:01;;;;;;;8.77;4.05;;;23.10;41.90;;;;;;7606896;23;80287;-65
2023/05/12 00:53:01;;;;;;;8.18;4.25;;;23.10;41.90;;;;;;7606156;23;80423;-64
2023/05/12 00:56:02;;;;;;;6.43;3.97;;;23.10;42.00;;;;;;7577764;23;81608;-65
2023/05/12 00:59:02;;;;;;;12.32;5.72;;;23.10;42.00;;;;;;7602916;23;80422;-64
2023/05/12 01:02:03;;;;;;;8.07;4.35;;;23.10;41.90;;;;;;7603217;23;81212;-64
2023/05/12 01:05:04;;;;;;;6.93;4.00;;;23.10;41.90;;;;;;7575399;23;82933;-66
2023/05/12 01:08:05;;;;;;;7.85;4.70;;;23.10;41.90;;;;;;7576877;23;83434;-65
2023/05/12 01:11:05;;;;;;;8.48;4.55;;;23.10;41.90;;;;;;7575957;23;82546;-64
2023/05/12 01:14:06;;;;;;;6.63;3.88;;;23.10;41.90;;;;;;7578556;23;82151;-65
2023/05/12 01:17:08;;;;;;;6.07;4.32;;;23.00;41.90;;;;;;7578806;23;83040;-63
2023/05/12 01:20:08;;;;;;;12.07;5.05;;;23.10;41.90;;;;;;7606427;23;80021;-61
2023/05/12 01:23:09;;;;;;;8.90;4.80;;;23.00;41.90;;;;;;7579059;23;83136;-61
2023/05/12 01:26:10;;;;;;;6.47;4.15;;;23.00;41.90;;;;;;7578731;23;81672;-61
2023/05/12 01:29:11;;;;;;;7.47;4.60;;;23.00;41.90;;;;;;7579039;23;82532;-61
2023/05/12 01:32:12;;;;;;;8.60;4.53;;;23.00;41.90;;;;;;7580584;23;82173;-62
2023/05/12 01:35:12;;;;;;;8.90;4.63;;;23.00;41.90;;;;;;7578935;23;81403;-61
2023/05/12 01:38:19;;;;;;;6.20;3.85;;;23.00;42.00;;;;;;7579720;23;82969;-63
2023/05/12 01:41:20;;;;;;;8.70;4.55;;;23.00;41.90;;;;;;7579201;23;83332;-63
2023/05/12 01:44:21;;;;;;;7.47;4.47;;;23.00;42.00;;;;;;7578737;23;82199;-64
2023/05/12 01:47:21;;;;;;;7.13;4.43;;;23.00;42.00;;;;;;7579417;23;83332;-66
2023/05/12 01:50:36;;;;;;;11.35;5.00;;;23.00;42.00;;;;;;7579722;23;83847;-65
2023/05/12 01:53:40;;;;;;;7.30;4.60;;;22.90;41.90;;;;;;7578522;23;80576;-64
2023/05/12 01:56:40;;;;;;;10.43;4.70;;;23.00;42.00;;;;;;7578271;23;83150;-67
2023/05/12 01:59:41;;;;;;;7.70;4.45;;;23.00;42.00;;;;;;7579011;23;82695;-65
2023/05/12 02:02:42;;;;;;;8.65;4.07;;;23.00;42.00;;;;;;7578171;23;82109;-66
2023/05/12 02:05:42;;;;;;;7.57;4.60;;;22.90;42.00;;;;;;7579051;23;83198;-65
2023/05/12 02:08:43;;;;;;;7.05;4.35;;;23.00;41.90;;;;;;7579399;23;81720;-66
2023/05/12 02:11:44;;;;;;;9.48;4.63;;;23.00;41.90;;;;;;7578954;23;83081;-65
2023/05/12 02:14:45;;;;;;;7.05;4.28;;;23.00;42.00;;;;;;7577858;23;83081;-64
2023/05/12 02:17:45;;;;;;;5.78;4.20;;;23.00;42.00;;;;;;7578269;23;83380;-64
2023/05/12 02:20:48;;;;;;;6.05;3.65;;;22.90;42.00;;;;;;7579394;23;83585;-66
2023/05/12 02:38:29;;;;;;;7.22;4.82;;;22.90;41.70;;;;;;7592657;23;82004;-59
2023/05/12 02:41:29;;;;;;;8.38;4.50;;;22.90;41.70;;;;;;7578860;23;83433;-60
2023/05/12 02:44:30;;;;;;;5.13;3.70;;;22.90;41.70;;;;;;7578174;23;81917;-59
2023/05/12 02:47:31;;;;;;;8.02;4.45;;;23.00;41.80;;;;;;7606138;23;80359;-61
2023/05/12 02:50:32;;;;;;;11.60;4.47;;;22.90;41.70;;;;;;7578395;23;83016;-61
2023/05/12 02:53:32;;;;;;;7.97;4.13;;;22.90;41.70;;;;;;7578400;23;82104;-60
2023/05/12 02:56:33;;;;;;;6.95;3.80;;;23.00;41.70;;;;;;7605499;23;80503;-60
2023/05/12 02:59:33;;;;;;;6.75;3.80;;;22.90;41.60;;;;;;7578162;23;83225;-59
2023/05/12 03:02:34;;;;;;;6.32;4.55;;;22.90;41.70;;;;;;7604405;23;80370;-58
2023/05/12 03:05:35;;;;;;;5.65;3.90;;;22.90;41.60;;;;;;7603684;23;80473;-60
2023/05/12 03:08:35;;;;;;;7.88;4.28;;;22.90;41.60;;;;;;7579743;23;83115;-61
2023/05/12 03:11:36;;;;;;;7.88;3.60;;;22.90;41.60;;;;;;7578758;23;83360;-62
2023/05/12 03:14:37;;;;;;;6.43;4.00;;;22.90;41.50;;;;;;7577976;23;81990;-61
2023/05/12 03:17:37;;;;;;;6.38;4.07;;;22.90;41.50;;;;;;7578699;23;83222;-61
2023/05/12 03:20:38;;;;;;;7.28;4.40;;;22.90;41.50;;;;;;7552782;23;83199;-62
2023/05/12 03:23:39;;;;;;;7.30;4.35;;;22.90;41.50;;;;;;7577628;23;82423;-62
2023/05/12 03:26:39;;;;;;;8.18;4.10;;;22.90;41.40;;;;;;7604834;23;80373;-62
2023/05/12 03:29:40;;;;;;;7.53;3.75;;;22.90;41.40;;;;;;7577989;23;83006;-62
2023/05/12 03:32:41;;;;;;;8.80;4.38;;;22.90;41.30;;;;;;7604468;23;80274;-62
2023/05/12 03:35:43;;;;;;;7.93;4.20;;;22.90;41.20;;;;;;7577186;23;83759;-62
2023/05/12 03:38:44;;;;;;;7.18;4.20;;;22.90;41.30;;;;;;7602108;23;80530;-63
2023/05/12 03:41:46;;;;;;;8.45;3.58;;;22.90;41.30;;;;;;7571927;23;83040;-61
2023/05/12 03:44:47;;;;;;;8.75;3.78;;;22.90;41.30;;;;;;7601876;23;80293;-62
2023/05/12 03:47:48;;;;;;;7.97;3.50;;;22.90;41.40;;;;;;7600767;23;80672;-60
2023/05/12 03:50:48;;;;;;;8.23;4.05;;;22.90;41.40;;;;;;7578594;23;82017;-60
2023/05/12 03:53:49;;;;;;;5.90;3.72;;;22.90;41.30;;;;;;7577794;23;83384;-60
2023/05/12 03:56:49;;;;;;;4.85;3.40;;;22.90;41.50;;;;;;7603329;23;81074;-60
2023/05/12 03:59:50;;;;;;;8.27;3.70;;;22.90;41.60;;;;;;7604772;23;80982;-60
2023/05/12 04:02:51;;;;;;;5.70;3.80;;;22.90;41.60;;;;;;7575548;23;83377;-58
2023/05/12 04:05:51;;;;;;;4.72;3.40;;;22.90;42.30;;;;;;7603478;23;80241;-60
2023/05/12 04:08:52;;;;;;;7.10;3.90;;;22.90;41.70;;;;;;7602858;23;81381;-58
2023/05/12 04:11:52;;;;;;;10.48;4.03;;;22.90;41.80;;;;;;7605343;23;80205;-61
2023/05/12 04:14:53;;;;;;;6.90;3.72;;;22.90;41.90;;;;;;7577462;23;82901;-60
2023/05/12 04:17:53;;;;;;;6.18;3.72;;;22.90;42.00;;;;;;7602696;23;80170;-62
2023/05/12 04:20:54;;;;;;;7.13;3.92;;;22.90;42.10;;;;;;7604112;23;80631;-60
2023/05/12 04:23:55;;;;;;;4.63;3.13;;;22.90;42.40;;;;;;7605679;23;80438;-75
2023/05/12 04:26:59;;;;;;;9.23;3.80;;;22.90;42.40;;;;;;7576860;23;81770;-63
2023/05/12 04:30:00;;;;;;;8.65;3.53;;;22.90;42.20;;;;;;7569046;23;83184;-72
2023/05/12 04:33:00;;;;;;;7.57;3.30;;;23.00;42.80;;;;;;7570910;23;83190;-70
2023/05/12 04:36:01;;;;;;;10.43;3.45;;;23.00;42.70;;;;;;7596138;23;81398;-62
2023/05/12 04:39:03;;;;;;;5.35;3.17;;;22.90;42.70;;;;;;7573124;23;83790;-64
2023/05/12 04:42:03;;;;;;;9.25;3.60;;;22.90;43.30;;;;;;7575688;23;83481;-66
2023/05/12 04:45:07;;;;;;;5.88;3.45;;;23.00;43.30;;;;;;7574165;23;81740;-67
2023/05/12 04:48:07;;;;;;;5.95;3.10;;;23.00;43.20;;;;;;7575170;23;83020;-69
2023/05/12 04:51:08;;;;;;;5.13;3.60;;;23.00;43.40;;;;;;7602652;23;80140;-63
2023/05/12 04:54:09;;;;;;;5.28;3.00;;;23.00;43.20;;;;;;7604380;23;80279;-66
2023/05/12 04:57:09;;;;;;;6.57;3.05;;;23.00;43.20;;;;;;7604248;23;80740;-66
2023/05/12 05:00:10;;;;;;;11.23;3.53;;;23.00;43.20;;;;;;7557768;23;82509;-69
2023/05/12 05:03:11;;;;;;;6.28;3.38;;;23.10;43.40;;;;;;7573663;23;82301;-62
2023/05/12 05:06:12;;;;;;;8.15;3.97;;;23.00;43.30;;;;;;7579881;23;80881;-62
2023/05/12 05:09:13;;;;;;;4.50;3.33;;;23.00;43.20;;;;;;7557259;23;83377;-63
2023/05/12 05:12:13;;;;;;;8.02;3.78;;;23.00;42.80;;;;;;7557374;23;83184;-63
2023/05/12 05:15:14;;;;;;;10.82;3.85;;;23.00;42.70;;;;;;7522648;23;81849;-65
2023/05/12 05:18:15;;;;;;;5.85;4.13;;;23.00;42.60;;;;;;7443724;23;83113;-65
2023/05/12 05:21:15;;;;;;;5.22;3.47;;;23.00;42.50;;;;;;7551232;23;82196;-63
2023/05/12 05:24:16;;;;;;;9.93;3.60;;;23.00;42.50;;;;;;7574417;23;83301;-63
2023/05/12 05:27:17;;;;;;;5.07;3.53;;;23.00;42.40;;;;;;7574247;23;83358;-64
2023/05/12 05:30:18;;;;;;;9.15;3.38;;;23.00;42.30;;;;;;7569157;23;82571;-64
2023/05/12 05:33:18;;;;;;;7.28;3.80;;;23.00;42.40;;;;;;7572676;23;82989;-65
2023/05/12 05:36:20;;;;;;;5.82;3.72;;;23.00;42.30;;;;;;7570157;23;81999;-66
2023/05/12 05:39:22;;;;;;;4.82;3.33;;;23.00;42.40;;;;;;7572459;23;82924;-68
2023/05/12 05:42:23;;;;;;;6.55;3.53;;;23.00;42.30;;;;;;7566230;23;83618;-67
2023/05/12 05:45:23;;;;;;;6.30;3.53;;;23.00;42.40;;;;;;7571706;23;83484;-66
2023/05/12 05:48:25;;;;;;;8.35;3.20;;;23.00;42.40;;;;;;7577113;23;82837;-67
2023/05/12 05:51:26;;;;;;;7.25;4.35;;;23.00;42.60;;;;;;7578136;23;83203;-67
2023/05/12 05:54:27;;;;;;;7.32;3.78;;;22.90;42.60;;;;;;7604223;23;80550;-62
2023/05/12 05:57:28;;;;;;;5.85;3.70;;;23.00;42.80;;;;;;7575479;23;82933;-63
2023/05/12 06:00:31;;;;;;;8.07;4.15;;;23.00;42.90;;;;;;7576273;23;83387;-64
2023/05/12 06:03:31;;;;;;;5.55;3.50;;;23.00;42.90;;;;;;7575075;23;83664;-66
2023/05/12 06:06:32;;;;;;;6.45;3.25;;;23.00;42.90;;;;;;7574693;23;83454;-65
2023/05/12 06:09:33;;;;;;;9.50;3.63;;;23.00;42.80;;;;;;7573812;23;82915;-68
2023/05/12 06:12:34;;;;;;;8.98;3.55;;;23.00;43.00;;;;;;7599600;23;80750;-69
2023/05/12 06:15:34;;;;;;;6.13;3.13;;;23.10;43.00;;;;;;7573941;23;83253;-68
2023/05/12 06:18:36;;;;;;;7.03;3.75;;;23.10;42.90;;;;;;7573294;23;82999;-70
2023/05/12 06:21:37;;;;;;;4.80;3.30;;;23.10;42.80;;;;;;7601578;23;81017;-67
2023/05/12 06:24:37;;;;;;;4.78;3.63;;;23.10;42.80;;;;;;7600188;23;80805;-67
2023/05/12 06:27:38;;;;;;;5.43;3.17;;;23.10;42.80;;;;;;7603164;23;80556;-69
2023/05/12 06:30:39;;;;;;;5.10;3.83;;;23.10;42.80;;;;;;7574070;23;83198;-68
2023/05/12 06:33:40;;;;;;;8.23;3.80;;;23.10;42.80;;;;;;7597182;23;81130;-68
2023/05/12 06:36:40;;;;;;;7.13;3.35;;;23.10;42.80;;;;;;7597117;23;87701;-69
2023/05/12 06:39:41;;;;;;;4.88;3.40;;;23.10;42.80;;;;;;7595803;23;81570;-68
2023/05/12 06:42:41;;;;;;;5.75;3.55;;;23.10;42.70;;;;;;7589719;23;82159;-68
2023/05/12 06:45:43;;;;;;;5.43;2.88;;;23.20;42.80;;;;;;7603382;23;81101;-67
2023/05/12 06:48:44;;;;;;;5.45;3.45;;;23.20;42.80;;;;;;7603629;23;80391;-68
2023/05/12 06:51:45;;;;;;;4.25;2.72;;;23.20;42.80;;;;;;7602645;23;80505;-61
2023/05/12 06:54:45;;;;;;;7.13;3.60;;;23.20;42.80;;;;;;7602988;23;80220;-65
2023/05/12 06:57:46;;;;;;;8.20;3.08;;;23.20;42.80;;;;;;7598335;23;81577;-68
2023/05/12 07:00:47;;;;;;;6.72;3.15;;;23.30;42.90;;;;;;7600286;23;80761;-64
2023/05/12 07:03:47;;;;;;;5.22;3.00;;;23.30;43.00;;;;;;7603366;23;80365;-67
2023/05/12 07:06:48;;;;;;;4.93;2.90;;;23.30;42.90;;;;;;7603433;23;80231;-61
2023/05/12 07:09:49;;;;;;;4.28;3.17;;;23.30;42.90;;;;;;7603728;23;80342;-61
2023/05/12 07:12:50;;;;;;;5.85;3.40;;;23.30;42.80;;;;;;7575746;23;81728;-66
2023/05/12 07:15:50;;;;;;;6.10;3.72;;;23.30;42.90;;;;;;7576904;23;81348;-65
2023/05/12 07:18:51;;;;;;;4.57;2.65;;;23.30;42.90;;;;;;7598191;23;81230;-68
2023/05/12 07:21:51;;;;;;;5.35;3.30;;;23.40;42.90;;;;;;7570605;23;80971;-68
2023/05/12 07:24:52;;;;;;;5.32;3.20;;;23.40;42.90;;;;;;7599338;23;80836;-67
2023/05/12 07:27:52;;;;;;;4.82;3.22;;;23.40;42.90;;;;;;7602891;23;80901;-68
2023/05/12 07:30:53;;;;;;;5.60;3.03;;;23.50;43.00;;;;;;7604025;23;79961;-63
2023/05/12 07:33:53;;;;;;;3.28;2.60;;;23.50;43.00;;;;;;7602881;23;80323;-67
2023/05/12 07:36:54;;;;;;;6.25;3.20;;;23.40;42.70;;;;;;7602518;23;80793;-64
2023/05/12 07:39:54;;;;;;;6.28;3.38;;;23.40;42.60;;;;;;7601457;23;80404;-68
2023/05/12 07:42:55;;;;;;;4.10;3.10;;;23.40;42.50;;;;;;7603421;23;81537;-68
2023/05/12 07:45:58;;;;;;;4.72;2.83;;;23.40;42.50;;;;;;7604294;23;81858;-75
2023/05/12 07:48:58;;;;;;;6.75;2.72;;;23.40;42.50;;;;;;7603977;23;80697;-70
2023/05/12 07:51:59;;;;;;;7.20;2.95;;;23.40;42.50;;;;;;7603780;23;80432;-74
2023/05/12 07:55:00;;;;;;;7.20;3.10;;;23.40;42.50;;;;;;7604164;23;80439;-75
2023/05/12 07:58:00;;;;;;;3.97;3.20;;;23.30;42.40;;;;;;7605156;23;80598;-72
2023/05/12 08:01:04;;;;;;;6.03;2.70;;;23.30;42.40;;;;;;7604292;23;81226;-68
2023/05/12 08:04:05;;;;;;;7.78;2.83;;;23.30;42.30;;;;;;7597787;23;80854;-72
2023/05/12 08:07:06;;;;;;;4.53;2.72;;;23.20;42.30;;;;;;7603905;23;81346;-71
2023/05/12 08:10:07;;;;;;;7.43;2.92;;;23.30;42.30;;;;;;7607750;23;80406;-77
2023/05/12 08:13:07;;;;;;;4.80;2.85;;;23.30;42.20;;;;;;7605998;23;81155;-73
2023/05/12 08:16:08;;;;;;;5.72;2.85;;;23.30;42.40;;;;;;7598881;23;81531;-72
2023/05/12 08:19:08;;;;;;;4.97;2.50;;;23.30;42.30;;;;;;7605498;23;80779;-72
2023/05/12 08:22:09;;;;;;;4.70;2.65;;;23.30;43.00;;;;;;7606651;23;80540;-61
2023/05/12 08:25:09;;;;;;;4.65;2.15;;;23.30;42.20;;;;;;7602964;23;80418;-61
2023/05/12 08:28:10;;;;;;;5.15;2.55;;;23.20;42.10;;;;;;7606831;23;80480;-60
2023/05/12 08:31:10;;;;;;;5.20;3.20;;;23.00;42.40;;;;;;7601653;23;80180;-61
2023/05/12 08:34:11;;;;;;;7.47;2.90;;;23.10;42.30;;;;;;7607159;23;80290;-62
2023/05/12 08:37:11;;;;;;;6.35;2.83;;;23.10;42.00;;;;;;7606914;23;81102;-63
2023/05/12 08:40:12;;;;;;;3.90;2.40;;;23.20;41.80;;;;;;7606977;23;80296;-64
2023/05/12 08:43:12;;;;;;;6.38;2.42;;;23.30;41.80;;;;;;7605211;23;80289;-64
2023/05/12 08:46:13;;;;;;;4.38;2.50;;;23.30;41.60;;;;;;7603583;23;81211;-66
2023/05/12 08:49:15;;;;;;;4.40;2.55;;;23.30;41.50;;;;;;7608615;23;81083;-66
2023/05/12 08:52:17;;;;;;;5.28;2.70;;;23.30;41.40;;;;;;7608955;23;81068;-64
2023/05/12 08:55:18;;;;;;;5.45;2.38;;;23.30;41.10;;;;;;7606018;23;79990;-69
2023/05/12 08:58:18;;;;;;;4.22;2.30;;;23.20;41.20;;;;;;7607927;23;80995;-70
2023/05/12 09:01:19;;;;;;;8.43;3.40;;;23.30;42.20;;;;;;7597982;23;80365;-65
2023/05/12 09:04:20;;;;;;;4.18;2.28;;;23.20;43.40;;;;;;7604248;23;80186;-64
2023/05/12 09:07:23;;;;;;;3.70;2.45;;;23.30;43.30;;;;;;7605979;23;80297;-66
2023/05/12 09:10:23;;;;;;;3.80;2.72;;;23.30;42.60;;;;;;7606141;23;79889;-67
2023/05/12 09:13:25;;;;;;;6.57;2.40;;;23.30;43.10;;;;;;7606176;23;80111;-66
2023/05/12 09:16:25;;;;;;;5.30;2.42;;;23.30;43.10;;;;;;7602900;23;81853;-64
2023/05/12 09:19:26;;;;;;;4.25;2.38;;;23.30;42.40;;;;;;7603541;23;80907;-62
2023/05/12 09:22:26;;;;;;;5.85;2.47;;;23.30;43.00;;;;;;7607054;23;80297;-68
2023/05/12 09:25:27;;;;;;;5.55;2.00;;;23.30;43.10;;;;;;7605957;23;81386;-64
2023/05/12 09:28:27;;;;;;;5.40;2.63;;;23.30;43.20;;;;;;7601985;23;81812;-64
2023/05/12 09:31:28;;;;;;;5.50;2.55;;;23.50;44.00;;;;;;7606398;23;80464;-63
2023/05/12 09:34:31;;;;;;;3.30;2.38;;;23.40;43.30;;;;;;7605945;23;80133;-65
2023/05/12 09:37:31;;;;;;;3.65;1.80;;;23.50;43.20;;;;;;7604535;23;80363;-65
2023/05/12 09:40:32;;;;;;;6.00;2.15;;;23.30;42.50;;;;;;7606083;23;80301;-65
2023/05/12 09:43:33;;;;;;;3.42;2.25;;;23.30;42.50;;;;;;7601301;23;81275;-65
2023/05/12 09:46:33;;;;;;;2.80;1.67;;;23.40;43.30;;;;;;7606522;23;80336;-63
2023/05/12 09:49:34;;;;;;;4.35;2.05;;;23.50;42.20;;;;;;7607247;23;80696;-63
2023/05/12 09:52:35;;;;;;;3.33;2.20;;;23.50;42.40;;;;;;7605303;23;80590;-64
2023/05/12 09:55:35;;;;;;;3.75;2.05;;;23.40;41.20;;;;;;7606492;23;80422;-67
2023/05/12 09:58:36;;;;;;;7.53;2.00;;;23.50;41.80;;;;;;7576554;23;80481;-65
2023/05/12 10:01:36;;;;;;;3.58;1.83;;;23.40;42.20;;;;;;7603628;23;80342;-66
2023/05/12 10:04:38;;;;;;;4.90;2.03;;;23.50;43.10;;;;;;7578575;23;83051;-66
2023/05/12 10:07:39;;;;;;;6.38;2.13;;;23.60;41.50;;;;;;7603268;23;80281;-67
2023/05/12 10:10:39;;;;;;;4.53;2.38;;;23.60;41.80;;;;;;7605523;23;80557;-63
2023/05/12 10:13:40;;;;;;;4.13;1.92;;;23.60;41.90;;;;;;7601293;23;80233;-67
2023/05/12 10:16:40;;;;;;;6.20;2.30;;;23.50;40.60;;;;;;7602386;23;80534;-67
2023/05/12 10:19:41;;;;;;;2.40;1.95;;;23.60;41.60;;;;;;7602862;23;80567;-68
2023/05/12 10:22:41;;;;;;;3.10;1.75;;;23.60;42.20;;;;;;7606328;23;80874;-68
2023/05/12 10:25:42;;;;;;;3.78;1.80;;;23.50;40.60;;;;;;7607071;23;80354;-67
2023/05/12 10:28:43;;;;;;;3.83;1.85;;;23.40;39.30;;;;;;7603072;23;80353;-69
2023/05/12 10:31:44;;;;;;;3.00;1.73;;;23.40;41.20;;;;;;7604761;23;80352;-67
2023/05/12 10:34:44;;;;;;;3.65;1.77;;;23.50;40.50;;;;;;7605648;23;80233;-70
2023/05/12 10:37:48;;;;;;;5.65;2.25;;;23.40;40.80;;;;;;7607203;23;80304;-67
2023/05/12 10:40:49;;;;;;;4.65;1.98;;;23.50;40.40;;;;;;7604354;23;80203;-69
2023/05/12 10:43:49;;;;;;;7.82;2.20;;;23.60;40.10;;;;;;7602101;23;80163;-66
2023/05/12 10:46:50;;;;;;;4.82;2.08;;;23.70;40.00;;;;;;7600894;23;80414;-66
2023/05/12 10:49:50;;;;;;;10.13;2.10;;;23.70;40.10;;;;;;7603807;23;80282;-61
2023/05/12 10:52:51;;;;;;;4.28;2.08;;;23.60;39.30;;;;;;7602824;23;84740;-62
2023/05/12 10:55:51;;;;;;;8.02;2.60;;;23.60;39.90;;;;;;7603418;23;81388;-62
2023/05/12 10:58:52;;;;;;;5.22;2.10;;;23.60;39.80;;;;;;7602944;23;80768;-61
2023/05/12 11:01:52;;;;;;;2.92;2.03;;;23.60;40.20;;;;;;7599682;23;81109;-61
2023/05/12 11:04:53;;;;;;;6.55;2.00;;;23.60;40.70;;;;;;7587488;23;80320;-62
2023/05/12 11:07:53;;;;;;;2.42;1.90;;;23.60;39.70;;;;;;7601328;23;80215;-62
2023/05/12 11:10:54;;;;;;;3.83;1.83;;;23.60;39.80;;;;;;7595504;23;80629;-62
2023/05/12 11:13:54;;;;;;;6.80;2.30;;;23.60;39.80;;;;;;7603662;23;80940;-60
2023/05/12 11:16:55;;;;;;;5.85;2.22;;;23.60;40.30;;;;;;7605390;23;80602;-62
2023/05/12 11:19:56;;;;;;;5.20;2.58;;;23.70;40.90;;;;;;7603329;23;80405;-63
2023/05/12 11:22:56;;;;;;;3.92;2.20;;;23.80;40.80;;;;;;7577198;23;80063;-59
2023/05/12 11:25:57;;;;;;;5.35;2.30;;;23.70;41.80;;;;;;7600102;23;81924;-63
2023/05/12 11:28:58;;;;;;;3.90;2.42;;;23.70;42.40;;;;;;7590144;23;80394;-63
2023/05/12 11:32:01;;;;;;;4.05;2.03;;;23.80;41.60;;;;;;7601692;23;80977;-64
2023/05/12 11:35:02;;;;;;;5.55;2.40;;;23.80;41.70;;;;;;7603154;23;82290;-62
2023/05/12 11:38:02;;;;;;;2.88;2.03;;;23.80;41.30;;;;;;7600754;23;80561;-63
2023/05/12 11:41:03;;;;;;;4.13;1.90;;;23.90;41.30;;;;;;7601456;23;80607;-63
2023/05/12 11:44:03;;;;;;;5.57;2.15;;;23.90;41.70;;;;;;7601947;23;80155;-64
2023/05/12 11:47:04;;;;;;;4.15;2.15;;;23.90;40.60;;;;;;7603302;23;81186;-63
2023/05/12 11:50:05;;;;;;;3.08;2.20;;;23.80;39.90;;;;;;7590851;23;80443;-66
2023/05/12 11:53:05;;;;;;;2.88;2.03;;;23.80;40.30;;;;;;7593946;23;81208;-65
2023/05/12 11:56:06;;;;;;;4.05;2.00;;;23.70;39.70;;;;;;7586055;23;80808;-66
2023/05/12 11:59:08;;;;;;;5.93;2.10;;;23.70;39.20;;;;;;7601501;23;80477;-64
2023/05/12 12:02:08;;;;;;;3.60;2.13;;;23.70;38.50;;;;;;7603661;23;80911;-67
2023/05/12 12:05:09;;;;;;;3.10;2.20;;;23.80;38.10;;;;;;7603406;23;81084;-64
2023/05/12 12:08:11;;;;;;;7.20;2.35;;;23.80;38.30;;;;;;7597965;23;80441;-64
2023/05/12 12:11:11;;;;;;;5.45;2.03;;;23.80;37.40;;;;;;7571848;23;81483;-64
2023/05/12 12:14:12;;;;;;;4.70;2.42;;;24.00;38.40;;;;;;7603131;23;80095;-68
2023/05/12 12:17:12;;;;;;;6.95;2.08;;;23.80;37.70;;;;;;7604502;23;81626;-70
2023/05/12 12:20:13;;;;;;;6.07;2.35;;;23.90;38.90;;;;;;7603686;23;81111;-67
2023/05/12 12:23:13;;;;;;;9.48;3.13;;;23.90;37.90;;;;;;7601985;23;81158;-65
2023/05/12 12:26:15;;;;;;;7.50;2.53;;;23.80;37.20;;;;;;7603184;23;80654;-67
2023/05/12 12:29:15;;;;;;;9.38;2.50;;;23.80;37.50;;;;;;7601046;23;80388;-67
2023/05/12 12:32:16;;;;;;;15.95;2.95;;;23.70;37.60;;;;;;7599596;23;81166;-66
2023/05/12 12:35:17;;;;;;;4.90;2.72;;;23.30;37.20;;;;;;7598234;23;80394;-67
2023/05/12 12:38:17;;;;;;;4.85;2.20;;;23.20;37.60;;;;;;7599752;23;81538;-70
2023/05/12 12:41:18;;;;;;;6.43;2.40;;;23.20;38.40;;;;;;7598671;23;80389;-67
2023/05/12 12:44:18;;;;;;;4.50;2.67;;;23.10;38.00;;;;;;7598777;23;80349;-70
2023/05/12 12:47:19;;;;;;;4.90;2.47;;;23.30;37.90;;;;;;7598275;23;81300;-67
2023/05/12 12:50:20;;;;;;;3.97;2.28;;;23.30;37.40;;;;;;7603419;23;81339;-74
2023/05/12 12:53:20;;;;;;;7.22;2.80;;;23.50;37.50;;;;;;7564951;23;82700;-75
2023/05/12 12:56:21;;;;;;;6.43;2.40;;;23.50;36.80;;;;;;7599220;23;80750;-65
2023/05/12 12:59:22;;;;;;;3.88;2.50;;;23.30;37.10;;;;;;7602680;23;80817;-64
2023/05/12 13:02:22;;;;;;;6.28;2.20;;;23.30;37.60;;;;;;7601612;23;81723;-62
2023/05/12 13:05:23;;;;;;;12.40;2.80;;;23.50;38.20;;;;;;7602543;23;80381;-65
2023/05/12 13:08:23;;;;;;;7.47;2.50;;;23.50;38.70;;;;;;7603266;23;80480;-62
2023/05/12 13:11:24;;;;;;;3.95;2.08;;;23.70;38.40;;;;;;7602870;23;80805;-64
2023/05/12 13:14:24;;;;;;;5.95;2.58;;;23.70;38.20;;;;;;7573802;23;83689;-67
2023/05/12 13:17:25;;;;;;;5.47;2.45;;;23.80;38.10;;;;;;7602580;23;80340;-68
2023/05/12 13:20:26;;;;;;;5.07;2.70;;;23.80;37.80;;;;;;7575077;23;80297;-69
2023/05/12 13:23:26;;;;;;;3.72;2.13;;;23.80;37.70;;;;;;7602104;23;80365;-70
2023/05/12 13:26:27;;;;;;;4.47;2.30;;;23.80;37.50;;;;;;7604403;23;80121;-64
2023/05/12 13:29:27;;;;;;;4.15;2.53;;;23.80;37.60;;;;;;7604999;23;80990;-64
2023/05/12 13:32:28;;;;;;;4.60;2.30;;;23.90;37.90;;;;;;7604970;23;80456;-69
2023/05/12 13:35:28;;;;;;;7.18;2.10;;;24.00;37.90;;;;;;7577511;23;80690;-70
2023/05/12 13:38:29;;;;;;;4.97;2.28;;;23.80;37.90;;;;;;7603359;23;80410;-68
2023/05/12 13:41:30;;;;;;;10.00;2.50;;;23.80;38.30;;;;;;7603051;23;82022;-72
2023/05/12 13:44:30;;;;;;;6.97;2.58;;;23.80;37.90;;;;;;7601831;23;82099;-71
2023/05/12 13:47:31;;;;;;;9.07;2.55;;;23.80;37.60;;;;;;7601838;23;80611;-73
2023/05/12 13:50:31;;;;;;;7.47;2.50;;;23.80;37.80;;;;;;7601639;23;80772;-69
2023/05/12 13:53:32;;;;;;;3.08;2.45;;;23.80;37.50;;;;;;7603451;23;80172;-73
2023/05/12 13:56:47;;;;;;;6.22;2.80;;;23.70;38.10;;;;;;7574715;23;82821;-69
2023/05/12 13:59:49;;;;;;;10.43;2.25;;;23.80;37.40;;;;;;7600477;23;81443;-69
2023/05/12 14:02:49;;;;;;;9.13;2.67;;;23.70;37.50;;;;;;7600099;23;80313;-66
2023/05/12 14:05:50;;;;;;;4.03;2.42;;;23.70;37.50;;;;;;7574448;23;81667;-69
2023/05/12 14:08:50;;;;;;;5.70;2.10;;;23.70;38.10;;;;;;7598884;23;81066;-70
2023/05/12 14:11:52;;;;;;;9.40;2.45;;;23.80;38.10;;;;;;7603504;23;80877;-65
2023/05/12 14:14:53;;;;;;;9.30;2.33;;;23.80;37.60;;;;;;7602860;23;80362;-69
2023/05/12 14:17:54;;;;;;;6.10;2.38;;;23.80;37.70;;;;;;7603373;23;81384;-71
2023/05/12 14:20:54;;;;;;;3.50;2.47;;;23.90;38.00;;;;;;7602735;23;80133;-70
2023/05/12 14:23:55;;;;;;;4.50;2.30;;;23.80;37.90;;;;;;7601158;23;80871;-65
2023/05/12 14:26:55;;;;;;;7.97;2.50;;;23.80;37.60;;;;;;7599172;23;80301;-62
2023/05/12 14:29:56;;;;;;;10.10;2.35;;;23.60;37.70;;;;;;7602618;23;81646;-61
2023/05/12 14:32:56;;;;;;;8.13;2.42;;;23.60;36.40;;;;;;7601344;23;81386;-62
2023/05/12 14:35:57;;;;;;;3.63;2.13;;;23.60;37.20;;;;;;7601834;23;81222;-61
2023/05/12 14:38:57;;;;;;;4.63;2.22;;;23.50;36.70;;;;;;7603520;23;80321;-63
2023/05/12 14:41:58;;;;;;;10.75;2.17;;;23.50;37.00;;;;;;7604254;23;80793;-61
2023/05/12 14:44:59;;;;;;;3.72;2.13;;;23.60;37.10;;;;;;7604414;23;80625;-62
2023/05/12 14:47:59;;;;;;;3.53;2.00;;;23.50;37.90;;;;;;7604317;23;80248;-62
2023/05/12 14:51:02;;;;;;;5.40;2.33;;;23.50;36.90;;;;;;7604576;23;80549;-62
2023/05/12 14:54:02;;;;;;;5.28;2.08;;;23.50;36.30;;;;;;7603972;23;80378;-61
2023/05/12 14:57:03;;;;;;;2.55;1.95;;;23.50;37.00;;;;;;7604707;23;81677;-61
2023/05/12 15:00:03;;;;;;;7.25;2.50;;;23.50;37.20;;;;;;7604031;23;80169;-62
2023/05/12 15:03:04;;;;;;;3.72;2.08;;;23.40;37.00;;;;;;7604037;23;80097;-62
2023/05/12 15:06:05;;;;;;;6.68;2.20;;;23.50;36.90;;;;;;7604128;23;80289;-61
2023/05/12 15:09:06;;;;;;;6.13;2.03;;;23.60;36.80;;;;;;7604056;23;80349;-61
2023/05/12 15:12:06;;;;;;;3.72;2.20;;;23.60;36.80;;;;;;7604053;23;80755;-61
2023/05/12 15:15:10;;;;;;;2.85;2.10;;;23.60;36.90;;;;;;7603635;23;80290;-62
2023/05/12 15:18:10;;;;;;;3.53;2.55;;;23.60;36.80;;;;;;7603299;23;80593;-60
2023/05/12 15:21:11;;;;;;;12.32;2.25;;;23.60;36.80;;;;;;7593329;23;81481;-56
2023/05/12 15:24:11;;;;;;;5.20;1.60;;;23.50;37.20;;;;;;7602408;23;81082;-61
2023/05/12 15:27:12;;;;;;;7.60;2.20;;;23.60;37.20;;;;;;7602304;23;81029;-65
2023/05/12 15:30:12;;;;;;;5.63;2.30;;;23.60;37.20;;;;;;7599722;23;80317;-60
2023/05/12 15:33:13;;;;;;;5.75;2.17;;;23.60;37.20;;;;;;7603320;23;81054;-62
2023/05/12 15:36:13;;;;;;;4.80;2.10;;;23.60;37.40;;;;;;7604230;23;80427;-61
2023/05/12 15:39:15;;;;;;;4.00;2.15;;;23.50;37.40;;;;;;7600169;23;81680;-64
2023/05/12 15:42:15;;;;;;;8.65;2.22;;;23.50;37.80;;;;;;7575576;23;81251;-59
2023/05/12 15:45:16;;;;;;;10.43;3.65;;;23.50;37.40;;;;;;7603541;23;81003;-59
2023/05/12 15:48:16;;;;;;;9.40;5.60;;;23.60;37.90;;;;;;7597165;23;80849;-59
2023/05/12 15:51:17;;;;;;;10.52;5.75;;;23.60;38.20;;;;;;7598424;23;80864;-52
2023/05/12 15:54:17;;;;;;;10.70;5.70;;;23.60;38.10;;;;;;7602412;23;80505;-60